Raleigh, NC (27603)

3:07 PM EST on November 23, 2014 (GMT -0500)
Colonial Heights | Change Station
CLOSE
Current Station
Personal Weather Station
Location: Raleigh, NC
Elevation: 305 ft
Nearby Weather Stations

Elev 305 ft 35.69 °N, 78.67 °W | Updated 21 seconds ago

Rain
Rain
54.9 °F
Feels Like 54.9 °F
N
0.0
Wind Variable Wind from North
Gusts 1.0 mph

Today
High -- | Low -- °F
--% Chance of Precip.
Yesterday
High -- | Low -- °F
Precip. -- in
6:58 AM 5:03 PM
New Moon, 2% visible
Pressure 30.05 in
Visibility 7.0 miles
Clouds Mostly Cloudy 1700 ft
Overcast 2400 ft
Dew Point 55 °F
Humidity 99%
Rainfall 0.00 in
Snow Depth Not available.
UV 0 out of 12
Pollen .30 out of 12
Air Quality Not available.
Flu Activity Not available.
METAR KRDU 231951Z 08004KT 7SM BKN017 OVC024 12/10 A3005 RMK AO2 RAB05E17 SLP176 P0000 T01220100 $

More Conditions Fewer Conditions

Pressure 30.05 in
Visibility 7.0 miles
Clouds Mostly Cloudy 1700 ft
Overcast 2400 ft
Dew Point 55 °F
Humidity 99%
Rainfall 0.00 in
Snow Depth Not available.
UV 0 out of 12
Pollen .30 out of 12
Air Quality Not available.
Flu Activity Not available.
METAR KRDU 231951Z 08004KT 7SM BKN017 OVC024 12/10 A3005 RMK AO2 RAB05E17 SLP176 P0000 T01220100 $

More Conditions Fewer Conditions

10-Day Weather Forecast

Almanac

Astronomy

Nov. 23, 2014 Rise Set
Actual Time
Civil Twilight
Nautical Twilight
Astronomical Twilight
Moon
Length of Visible Light
Length of Day
Tomorrow will be .
, % of the Moon is Illuminated

Today's Extremes

State Highs State Lows

Community

WunderPhotos

Upload Photos

1,773,167 photos uploaded!

WunderBlogs® & News

Nearby

Air Quality

  Air Quality AQ Index Pollutant
Not available.

Snow Depth

Station Depth Elevation

Earthquake Activity

City Distance Mag. Time & Date
Minimum magnitude displayed is 2.5.

Coastal Water Temperatures

Place Temperature

Nearby Weather Stations